createdAt,value
2019-02-17T00:01:44.003Z,10.43
2019-02-17T00:04:15.520Z,10.93
2019-02-17T00:06:47.075Z,10.47
2019-02-17T00:09:19.522Z,10.73
2019-02-17T00:11:50.112Z,11.87
2019-02-17T00:14:23.894Z,11.07
2019-02-17T00:16:53.920Z,10.93
2019-02-17T00:19:25.988Z,11.13
2019-02-17T00:21:56.594Z,10.68
2019-02-17T00:24:26.953Z,10.93
2019-02-17T00:26:59.043Z,9.90
2019-02-17T00:29:32.267Z,10.00
2019-02-17T00:32:02.708Z,10.90
2019-02-17T00:34:33.409Z,10.00
2019-02-17T00:37:04.898Z,10.65
2019-02-17T00:39:37.524Z,12.07
2019-02-17T00:42:09.453Z,11.45
2019-02-17T00:44:39.889Z,11.07
2019-02-17T00:47:10.529Z,10.65
2019-02-17T00:49:41.161Z,11.90
2019-02-17T00:52:14.107Z,10.60
2019-02-17T00:54:44.503Z,9.90
2019-02-17T00:57:15.397Z,9.87
2019-02-17T00:59:47.082Z,10.80
2019-02-17T01:02:17.585Z,10.60
2019-02-17T01:04:48.135Z,9.83
2019-02-17T01:07:19.963Z,10.15
2019-02-17T01:09:50.512Z,10.60
2019-02-17T01:12:24.271Z,10.44
2019-02-17T01:14:56.208Z,12.77
2019-02-17T01:17:38.175Z,10.40
2019-02-17T01:20:10.317Z,11.27
2019-02-17T01:22:43.117Z,11.00
2019-02-17T01:25:13.730Z,11.17
2019-02-17T01:27:44.382Z,11.33
2019-02-17T01:30:15.982Z,11.13
2019-02-17T01:32:46.575Z,9.53
2019-02-17T01:35:16.870Z,11.00
2019-02-17T01:37:48.972Z,11.27
2019-02-17T01:40:20.462Z,10.73
2019-02-17T01:42:51.136Z,9.90
2019-02-17T01:45:22.536Z,10.32
2019-02-17T01:47:52.857Z,10.70
2019-02-17T01:50:23.158Z,10.90
2019-02-17T01:52:55.617Z,10.08
2019-02-17T01:55:25.961Z,10.63
2019-02-17T01:57:57.613Z,10.32
2019-02-17T02:00:45.212Z,10.60
2019-02-17T02:03:10.471Z,10.80
2019-02-17T02:05:40.869Z,10.97
2019-02-17T02:08:12.777Z,11.43
2019-02-17T02:10:43.082Z,9.60
2019-02-17T02:13:13.758Z,9.60
2019-02-17T02:15:44.093Z,10.23
2019-02-17T02:18:15.232Z,11.38
2019-02-17T02:20:45.756Z,10.00
2019-02-17T02:23:17.493Z,9.25
2019-02-17T02:25:47.873Z,9.90
2019-02-17T02:28:19.073Z,9.77
2019-02-17T02:30:49.695Z,9.83
2019-02-17T02:33:21.656Z,9.88
2019-02-17T02:35:52.263Z,10.80
2019-02-17T02:38:22.737Z,10.50
2019-02-17T02:40:53.371Z,10.50
2019-02-17T02:43:23.737Z,10.30
2019-02-17T02:45:55.719Z,9.98
2019-02-17T02:48:26.003Z,11.07
2019-02-17T02:50:56.665Z,11.17
2019-02-17T02:53:27.003Z,10.00
2019-02-17T02:55:57.429Z,11.47
2019-02-17T02:58:27.931Z,11.20
2019-02-17T03:00:58.241Z,10.23
2019-02-17T03:03:28.863Z,9.57
2019-02-17T03:06:10.057Z,11.28
2019-02-17T03:08:40.505Z,10.97
2019-02-17T03:11:11.223Z,10.82
2019-02-17T03:13:43.304Z,10.57
2019-02-17T03:16:13.986Z,10.10
2019-02-17T03:18:45.785Z,10.45
2019-02-17T03:21:24.710Z,9.96
2019-02-17T03:23:55.428Z,10.23
2019-02-17T03:26:25.798Z,10.17
2019-02-17T03:28:57.840Z,10.43
2019-02-17T03:31:29.732Z,10.00
2019-02-17T03:34:00.041Z,9.90
2019-02-17T03:36:30.689Z,10.43
2019-02-17T03:39:01.094Z,11.10
2019-02-17T03:41:33.281Z,11.57
2019-02-17T03:44:03.893Z,11.77
2019-02-17T03:46:36.419Z,10.88
2019-02-17T03:49:07.002Z,10.33
2019-02-17T03:51:37.307Z,10.78
2019-02-17T03:54:07.846Z,11.03
2019-02-17T03:56:39.382Z,9.95
2019-02-17T03:59:11.338Z,11.47
2019-02-17T04:01:42.592Z,11.08
2019-02-17T04:04:14.074Z,10.88
2019-02-17T04:06:45.574Z,10.50
2019-02-17T04:09:15.879Z,10.43
2019-02-17T04:11:50.204Z,9.93
2019-02-17T04:14:20.497Z,11.50
2019-02-17T04:16:51.181Z,11.70
2019-02-17T04:19:21.864Z,11.25
2019-02-17T04:21:56.832Z,11.23
2019-02-17T04:24:27.632Z,12.25
2019-02-17T04:27:00.078Z,10.97
2019-02-17T04:29:33.808Z,11.70
2019-02-17T04:32:04.168Z,11.13
2019-02-17T04:34:38.411Z,11.10
2019-02-17T04:37:11.626Z,11.43
2019-02-17T04:39:41.904Z,11.30
2019-02-17T04:42:12.344Z,10.67
2019-02-17T04:44:43.938Z,10.57
2019-02-17T04:47:14.315Z,11.27
2019-02-17T04:49:50.205Z,10.67
2019-02-17T04:52:22.578Z,11.55
2019-02-17T04:54:53.162Z,11.53
2019-02-17T04:57:28.790Z,10.93
2019-02-17T04:59:59.331Z,11.88
2019-02-17T05:02:29.773Z,11.70
2019-02-17T05:05:04.396Z,10.80
2019-02-17T05:07:38.116Z,11.78
2019-02-17T05:10:18.172Z,10.60
2019-02-17T05:12:49.979Z,11.18
2019-02-17T05:15:21.182Z,11.40
2019-02-17T05:17:51.734Z,10.60
2019-02-17T05:20:24.531Z,11.13
2019-02-17T05:22:56.730Z,11.12
2019-02-17T05:25:28.115Z,11.67
2019-02-17T05:28:07.851Z,11.17
2019-02-17T05:30:38.572Z,11.33
2019-02-17T05:33:14.464Z,11.20
2019-02-17T05:35:43.652Z,10.90
2019-02-17T05:38:15.366Z,11.00
2019-02-17T05:40:49.494Z,11.30
2019-02-17T05:43:19.846Z,11.20
2019-02-17T05:45:50.255Z,12.00
2019-02-17T05:48:24.764Z,11.22
2019-02-17T05:50:55.291Z,12.67
2019-02-17T05:53:25.788Z,12.50
2019-02-17T05:55:56.088Z,11.63
2019-02-17T05:58:29.918Z,12.00
2019-02-17T06:01:03.796Z,11.23
2019-02-17T06:03:34.428Z,11.78
2019-02-17T06:06:08.985Z,11.10
2019-02-17T06:08:41.073Z,11.30
2019-02-17T06:11:20.607Z,11.67
2019-02-17T06:13:50.902Z,11.20
2019-02-17T06:16:23.376Z,11.65
2019-02-17T06:18:54.016Z,11.87
2019-02-17T06:21:25.961Z,11.40
2019-02-17T06:23:57.813Z,11.87
2019-02-17T06:26:28.476Z,12.07
2019-02-17T06:28:59.929Z,11.40
2019-02-17T06:31:30.486Z,11.30
2019-02-17T06:34:03.929Z,12.37
2019-02-17T06:36:34.234Z,11.60
2019-02-17T06:39:05.679Z,11.73
2019-02-17T06:41:39.611Z,11.77
2019-02-17T06:44:10.241Z,12.33
2019-02-17T06:46:45.469Z,12.43
2019-02-17T06:49:16.196Z,11.53
2019-02-17T06:51:46.612Z,11.67
2019-02-17T06:54:17.238Z,12.05
2019-02-17T06:57:09.167Z,11.90
2019-02-17T06:59:43.581Z,13.00
2019-02-17T07:02:18.120Z,12.50
2019-02-17T07:05:22.749Z,12.37
2019-02-17T07:07:53.029Z,12.07
2019-02-17T07:10:29.064Z,12.80
2019-02-17T07:13:03.858Z,12.10
2019-02-17T07:15:40.880Z,12.47
2019-02-17T07:18:11.680Z,13.10
2019-02-17T07:20:46.170Z,12.23
2019-02-17T07:23:17.738Z,12.23
2019-02-17T07:25:49.017Z,12.30
2019-02-17T07:28:20.605Z,12.13
2019-02-17T07:30:52.830Z,12.53
2019-02-17T07:33:23.122Z,12.90
2019-02-17T07:35:53.443Z,12.47
2019-02-17T07:38:23.782Z,12.53
2019-02-17T07:40:57.157Z,12.28
2019-02-17T07:43:32.088Z,12.30
2019-02-17T07:46:05.591Z,12.03
2019-02-17T07:48:36.029Z,12.97
2019-02-17T07:51:06.675Z,12.90
2019-02-17T07:53:36.976Z,13.40
2019-02-17T07:56:08.548Z,13.67
2019-02-17T07:58:41.735Z,12.70
2019-02-17T08:01:12.395Z,11.97
2019-02-17T08:03:45.740Z,12.93
2019-02-17T08:06:21.637Z,12.80
2019-02-17T08:08:49.493Z,12.70
2019-02-17T08:11:28.857Z,12.80
2019-02-17T08:14:02.353Z,12.53
2019-02-17T08:16:33.305Z,12.55
2019-02-17T08:19:08.620Z,12.43
2019-02-17T08:21:39.244Z,12.10
2019-02-17T08:24:09.735Z,12.53
2019-02-17T08:26:40.171Z,12.93
2019-02-17T08:29:11.903Z,13.10
2019-02-17T08:31:42.471Z,11.80
2019-02-17T08:34:15.385Z,11.73
2019-02-17T08:36:45.893Z,12.65
2019-02-17T08:39:20.562Z,11.20
2019-02-17T08:41:51.948Z,11.80
2019-02-17T08:44:25.657Z,12.27
2019-02-17T08:46:58.612Z,11.36
2019-02-17T08:49:28.974Z,11.10
2019-02-17T08:52:02.727Z,11.80
2019-02-17T08:54:35.055Z,10.63
2019-02-17T08:57:07.533Z,11.40
2019-02-17T08:59:39.725Z,11.73
2019-02-17T09:02:10.037Z,11.50
2019-02-17T09:04:40.412Z,11.33
2019-02-17T09:07:14.155Z,10.93
2019-02-17T09:09:44.485Z,11.23
2019-02-17T09:12:16.778Z,11.22
2019-02-17T09:14:47.312Z,10.83
2019-02-17T09:17:18.065Z,11.20
2019-02-17T09:19:52.203Z,11.40
2019-02-17T09:22:24.805Z,10.27
2019-02-17T09:24:55.846Z,11.28
2019-02-17T09:27:30.560Z,11.00
2019-02-17T09:30:02.117Z,11.20
2019-02-17T09:32:33.897Z,11.00
2019-02-17T09:35:04.532Z,10.77
2019-02-17T09:37:37.302Z,10.85
2019-02-17T09:40:09.070Z,11.45
2019-02-17T09:42:40.409Z,11.08
2019-02-17T09:45:13.073Z,11.77
2019-02-17T09:47:44.286Z,10.63
2019-02-17T09:50:14.713Z,10.25
2019-02-17T09:52:48.275Z,10.90
2019-02-17T09:55:20.579Z,11.95
2019-02-17T09:57:52.135Z,11.83
2019-02-17T10:00:28.595Z,12.27
2019-02-17T10:03:04.059Z,12.37
2019-02-17T10:05:35.190Z,11.35
2019-02-17T10:08:09.615Z,10.45
2019-02-17T10:10:41.578Z,11.05
2019-02-17T10:13:12.132Z,10.90
2019-02-17T10:15:51.843Z,10.43
2019-02-17T10:18:23.133Z,10.70
2019-02-17T10:20:53.831Z,10.33
2019-02-17T10:23:26.485Z,10.15
2019-02-17T10:25:58.458Z,11.23
2019-02-17T10:28:30.799Z,11.13
2019-02-17T10:31:01.787Z,10.53
2019-02-17T10:33:33.283Z,10.90
2019-02-17T10:36:03.984Z,10.33
2019-02-17T10:38:35.335Z,10.70
2019-02-17T10:41:06.156Z,10.33
2019-02-17T10:43:37.262Z,11.25
2019-02-17T10:46:09.945Z,10.85
2019-02-17T10:48:40.723Z,11.33
2019-02-17T10:51:13.306Z,11.78
2019-02-17T10:53:51.321Z,10.15
2019-02-17T10:56:25.173Z,10.83
2019-02-17T10:58:55.841Z,12.93
2019-02-17T11:01:26.173Z,11.57
2019-02-17T11:04:08.607Z,11.76
2019-02-17T11:06:38.955Z,12.67
2019-02-17T11:09:19.905Z,11.95
2019-02-17T11:11:53.143Z,12.60
2019-02-17T11:14:23.573Z,11.47
2019-02-17T11:16:55.018Z,11.30
2019-02-17T11:19:26.678Z,11.73
2019-02-17T11:21:58.139Z,11.10
2019-02-17T11:24:28.878Z,11.18
2019-02-17T11:27:00.508Z,10.93
2019-02-17T11:29:30.804Z,10.43
2019-02-17T11:32:01.648Z,10.90
2019-02-17T11:34:32.171Z,10.47
2019-02-17T11:37:02.492Z,11.57
2019-02-17T11:39:33.109Z,10.83
2019-02-17T11:42:07.537Z,11.80
2019-02-17T11:44:39.714Z,10.18
2019-02-17T11:47:10.418Z,11.87
2019-02-17T11:49:42.525Z,10.50
2019-02-17T11:52:13.188Z,10.37
2019-02-17T11:54:47.552Z,9.83
2019-02-17T11:57:23.595Z,11.30
2019-02-17T11:59:51.055Z,10.77
2019-02-17T12:02:27.665Z,10.17
2019-02-17T12:05:04.155Z,11.30
2019-02-17T12:07:37.582Z,10.33
2019-02-17T12:10:10.293Z,10.15
2019-02-17T12:12:41.273Z,10.13
2019-02-17T12:15:13.919Z,9.43
2019-02-17T12:17:45.462Z,11.20
2019-02-17T12:20:41.870Z,9.43
2019-02-17T12:23:19.389Z,9.25
2019-02-17T12:25:55.195Z,9.20
2019-02-17T12:28:29.785Z,9.83
2019-02-17T12:31:04.883Z,10.43
2019-02-17T12:33:35.595Z,9.23
2019-02-17T12:36:08.570Z,10.07
2019-02-17T12:39:34.102Z,9.27
2019-02-17T12:41:18.128Z,9.30
2019-02-17T12:43:56.314Z,8.70
2019-02-17T12:46:27.550Z,9.40
2019-02-17T12:48:58.123Z,8.87
2019-02-17T12:51:32.924Z,9.10
2019-02-17T12:54:03.461Z,8.10
2019-02-17T12:56:34.526Z,8.60
2019-02-17T12:59:10.588Z,8.58
2019-02-17T13:01:41.744Z,8.35
2019-02-17T13:04:12.814Z,8.68
2019-02-17T13:06:49.510Z,8.85
2019-02-17T13:09:19.963Z,8.53
2019-02-17T13:11:50.288Z,8.50
2019-02-17T13:14:23.023Z,8.10
2019-02-17T13:16:56.075Z,8.03
2019-02-17T13:19:26.674Z,8.48
2019-02-17T13:21:57.798Z,8.15
2019-02-17T13:24:31.547Z,8.38
2019-02-17T13:27:02.377Z,8.33
2019-02-17T13:29:33.270Z,8.73
2019-02-17T13:32:05.310Z,8.57
2019-02-17T13:34:36.909Z,8.40
2019-02-17T13:37:09.237Z,7.93
2019-02-17T13:39:43.306Z,7.97
2019-02-17T13:42:13.967Z,8.43
2019-02-17T13:44:47.100Z,7.83
2019-02-17T13:47:19.421Z,8.25
2019-02-17T13:49:50.436Z,7.92
2019-02-17T13:52:32.105Z,7.83
2019-02-17T13:55:03.725Z,7.70
2019-02-17T13:57:34.252Z,7.80
2019-02-17T14:00:05.817Z,7.50
2019-02-17T14:02:38.060Z,7.72
2019-02-17T14:05:10.354Z,7.20
2019-02-17T14:07:41.841Z,7.07
2019-02-17T14:10:14.694Z,7.70
2019-02-17T14:12:46.147Z,7.62
2019-02-17T14:15:17.743Z,6.60
2019-02-17T14:17:48.692Z,7.40
2019-02-17T14:20:19.314Z,6.93
2019-02-17T14:22:51.477Z,7.17
2019-02-17T14:25:21.990Z,6.35
2019-02-17T14:27:52.632Z,6.63
2019-02-17T14:30:26.301Z,7.37
2019-02-17T14:32:59.481Z,6.53
2019-02-17T14:35:31.568Z,6.53
2019-02-17T14:38:04.296Z,6.50
2019-02-17T14:40:34.889Z,6.97
2019-02-17T14:43:05.178Z,6.27
2019-02-17T14:45:35.511Z,6.67
2019-02-17T14:48:11.297Z,6.17
2019-02-17T14:50:39.776Z,6.07
2019-02-17T14:53:10.106Z,6.23
2019-02-17T14:55:48.092Z,6.95
2019-02-17T14:58:18.624Z,6.42
2019-02-17T15:00:49.436Z,6.00
2019-02-17T15:03:21.468Z,6.03
2019-02-17T15:05:53.697Z,6.37
2019-02-17T15:08:24.427Z,6.00
2019-02-17T15:10:56.436Z,6.00
2019-02-17T15:13:27.058Z,6.28
2019-02-17T15:15:58.618Z,6.07
2019-02-17T15:18:31.354Z,6.35
2019-02-17T15:21:01.577Z,6.30
2019-02-17T15:23:33.902Z,5.95
2019-02-17T15:26:05.899Z,6.00
2019-02-17T15:28:36.312Z,5.90
2019-02-17T15:31:06.765Z,6.10
2019-02-17T15:33:38.438Z,6.17
2019-02-17T15:36:10.677Z,6.22
2019-02-17T15:38:42.717Z,6.08
2019-02-17T15:41:13.082Z,6.40
2019-02-17T15:43:45.520Z,6.80
2019-02-17T15:46:17.436Z,6.27
2019-02-17T15:48:50.221Z,5.40
2019-02-17T15:51:20.404Z,5.70
2019-02-17T15:53:54.317Z,5.62
2019-02-17T15:56:26.521Z,6.20
2019-02-17T15:58:59.119Z,5.58
2019-02-17T16:01:30.936Z,5.73
2019-02-17T16:04:01.545Z,5.50
2019-02-17T16:06:32.117Z,5.70
2019-02-17T16:09:12.367Z,5.30
2019-02-17T16:11:37.547Z,4.67
2019-02-17T16:14:08.320Z,4.40
2019-02-17T16:16:40.056Z,4.73
2019-02-17T16:19:10.980Z,4.60
2019-02-17T16:21:41.613Z,5.17
2019-02-17T16:24:12.244Z,5.00
2019-02-17T16:26:42.728Z,5.23
2019-02-17T16:29:13.101Z,5.27
2019-02-17T16:31:43.463Z,6.13
2019-02-17T16:34:13.806Z,5.00
2019-02-17T16:36:46.930Z,5.50
2019-02-17T16:39:17.306Z,5.40
2019-02-17T16:41:48.324Z,5.17
2019-02-17T16:44:18.834Z,5.50
2019-02-17T16:46:49.713Z,4.80
2019-02-17T16:49:20.175Z,5.10
2019-02-17T16:51:50.894Z,5.72
2019-02-17T16:54:23.946Z,5.23
2019-02-17T16:56:54.989Z,5.65
2019-02-17T16:59:25.291Z,5.90
2019-02-17T17:01:57.732Z,5.85
2019-02-17T17:04:29.721Z,5.43
2019-02-17T17:07:01.700Z,5.90
2019-02-17T17:09:34.373Z,5.43
2019-02-17T17:12:05.469Z,5.08
2019-02-17T17:14:38.740Z,5.53
2019-02-17T17:17:13.138Z,4.97
2019-02-17T17:19:42.129Z,5.00
2019-02-17T17:22:14.688Z,4.78
2019-02-17T17:24:45.151Z,5.27
2019-02-17T17:27:18.010Z,5.27
2019-02-17T17:30:13.954Z,5.23
2019-02-17T17:32:46.466Z,4.33
2019-02-17T17:35:17.948Z,4.75
2019-02-17T17:37:48.451Z,5.17
2019-02-17T17:40:26.593Z,4.17
2019-02-17T17:42:55.103Z,4.70
2019-02-17T17:45:27.388Z,5.27
2019-02-17T17:48:02.527Z,4.43
2019-02-17T17:50:34.634Z,4.78
2019-02-17T17:53:04.984Z,5.27
2019-02-17T17:55:37.440Z,5.10
2019-02-17T17:58:09.031Z,4.50
2019-02-17T18:00:39.922Z,5.17
2019-02-17T18:03:10.353Z,4.57
2019-02-17T18:05:43.170Z,4.78
2019-02-17T18:08:13.543Z,4.87
2019-02-17T18:10:48.406Z,4.30
2019-02-17T18:13:16.135Z,4.73
2019-02-17T18:15:46.806Z,4.57
2019-02-17T18:18:17.551Z,5.07
2019-02-17T18:20:49.160Z,4.93
2019-02-17T18:23:22.718Z,4.58
2019-02-17T18:25:53.147Z,4.70
2019-02-17T18:28:24.655Z,4.83
2019-02-17T18:30:56.479Z,4.40
2019-02-17T18:33:33.614Z,5.00
2019-02-17T18:36:04.561Z,4.87
2019-02-17T18:38:38.266Z,4.53
2019-02-17T18:41:11.767Z,4.97
2019-02-17T18:43:42.830Z,4.87
2019-02-17T18:46:13.922Z,5.25
2019-02-17T18:48:44.305Z,5.10
2019-02-17T18:51:14.770Z,4.33
2019-02-17T18:53:46.643Z,4.90
2019-02-17T18:56:19.806Z,5.00
2019-02-17T18:58:50.509Z,5.00
2019-02-17T19:01:23.633Z,4.73
2019-02-17T19:03:56.133Z,5.47
2019-02-17T19:06:28.585Z,4.90
2019-02-17T19:08:58.977Z,4.93
2019-02-17T19:11:29.489Z,4.80
2019-02-17T19:14:00.119Z,5.00
2019-02-17T19:16:30.533Z,4.90
2019-02-17T19:19:00.969Z,5.00
2019-02-17T19:21:33.298Z,5.28
2019-02-17T19:24:05.122Z,4.68
2019-02-17T19:26:35.439Z,4.93
2019-02-17T19:29:08.786Z,5.15
2019-02-17T19:31:40.770Z,5.50
2019-02-17T19:34:15.527Z,5.40
2019-02-17T19:36:46.224Z,5.57
2019-02-17T19:39:17.104Z,5.20
2019-02-17T19:41:48.893Z,5.10
2019-02-17T19:44:21.134Z,4.97
2019-02-17T19:46:52.038Z,4.92
2019-02-17T19:49:28.566Z,5.67
2019-02-17T19:51:58.621Z,4.87
2019-02-17T19:54:29.650Z,5.30
2019-02-17T19:57:06.979Z,4.77
2019-02-17T19:59:34.275Z,5.33
2019-02-17T20:02:04.613Z,5.10
2019-02-17T20:04:44.092Z,5.07
2019-02-17T20:07:14.686Z,4.93
2019-02-17T20:09:47.086Z,5.15
2019-02-17T20:12:20.988Z,5.60
2019-02-17T20:15:00.909Z,5.00
2019-02-17T20:17:31.577Z,5.53
2019-02-17T20:20:02.347Z,5.67
2019-02-17T20:22:32.943Z,5.13
2019-02-17T20:25:03.876Z,5.90
2019-02-17T20:27:38.000Z,6.23
2019-02-17T20:30:10.572Z,5.56
2019-02-17T20:32:43.128Z,5.97
2019-02-17T20:35:16.337Z,5.63
2019-02-17T20:37:47.101Z,5.53
2019-02-17T20:40:17.516Z,6.03
2019-02-17T20:42:49.012Z,5.50
2019-02-17T20:45:19.586Z,6.10
2019-02-17T20:47:49.947Z,5.87
2019-02-17T20:50:20.407Z,5.63
2019-02-17T20:52:50.800Z,5.67
2019-02-17T20:55:21.432Z,6.23
2019-02-17T20:57:53.902Z,5.67
2019-02-17T21:00:30.163Z,5.70
2019-02-17T21:03:02.483Z,6.37
2019-02-17T21:05:33.306Z,5.87
2019-02-17T21:08:07.547Z,6.00
2019-02-17T21:10:40.283Z,6.37
2019-02-17T21:13:11.398Z,5.92
2019-02-17T21:15:43.597Z,6.22
2019-02-17T21:18:14.089Z,6.60
2019-02-17T21:20:44.466Z,7.10
2019-02-17T21:23:14.812Z,6.23
2019-02-17T21:25:47.463Z,5.70
2019-02-17T21:28:17.717Z,6.20
2019-02-17T21:30:50.569Z,5.80
2019-02-17T21:33:28.472Z,6.17
2019-02-17T21:36:01.262Z,5.80
2019-02-17T21:38:32.163Z,6.43
2019-02-17T21:41:09.468Z,6.63
2019-02-17T21:43:39.190Z,6.27
2019-02-17T21:46:11.399Z,6.78
2019-02-17T21:48:44.327Z,5.70
2019-02-17T21:51:18.400Z,5.67
2019-02-17T21:53:49.012Z,5.73
2019-02-17T21:56:20.010Z,5.67
2019-02-17T21:58:54.145Z,5.83
2019-02-17T22:01:26.171Z,6.67
2019-02-17T22:03:56.602Z,5.97
2019-02-17T22:06:33.771Z,5.97
2019-02-17T22:09:01.975Z,5.97
2019-02-17T22:11:35.743Z,5.67
2019-02-17T22:14:06.196Z,5.97
2019-02-17T22:16:36.552Z,6.17
2019-02-17T22:19:11.041Z,6.40
2019-02-17T22:21:41.805Z,6.13
2019-02-17T22:24:12.086Z,6.03
2019-02-17T22:26:42.814Z,5.87
2019-02-17T22:29:13.409Z,5.97
2019-02-17T22:31:43.759Z,5.73
2019-02-17T22:34:15.599Z,6.45
2019-02-17T22:36:47.573Z,5.87
2019-02-17T22:39:18.049Z,6.15
2019-02-17T22:41:49.623Z,6.43
2019-02-17T22:44:20.193Z,6.47
2019-02-17T22:46:50.627Z,6.37
2019-02-17T22:49:21.331Z,6.17
2019-02-17T22:51:51.729Z,6.10
2019-02-17T22:54:24.164Z,6.20
2019-02-17T22:56:56.485Z,6.00
2019-02-17T22:59:27.042Z,5.87
2019-02-17T23:01:58.955Z,5.80
2019-02-17T23:04:29.259Z,5.20
2019-02-17T23:06:59.692Z,5.87
2019-02-17T23:09:31.517Z,5.90
2019-02-17T23:12:01.797Z,5.83
2019-02-17T23:14:33.193Z,6.20
2019-02-17T23:17:03.519Z,5.90
2019-02-17T23:19:34.124Z,6.37
2019-02-17T23:22:05.123Z,6.12
2019-02-17T23:24:36.760Z,6.28
2019-02-17T23:27:07.254Z,5.63
2019-02-17T23:29:40.479Z,5.77
2019-02-17T23:32:11.094Z,5.90
2019-02-17T23:34:41.384Z,5.93
2019-02-17T23:37:11.805Z,5.35
2019-02-17T23:39:42.209Z,6.17
2019-02-17T23:42:14.304Z,5.83
2019-02-17T23:44:48.527Z,6.13
2019-02-17T23:47:20.247Z,5.30
2019-02-17T23:49:52.171Z,5.00
2019-02-17T23:52:24.547Z,5.58
2019-02-17T23:54:58.575Z,5.60
2019-02-17T23:57:28.966Z,5.20
2019-02-17T23:59:59.467Z,5.43
